Waterford, Ohio
Current Conditions -  °F | °C
As of 10:53 PM on Monday 22 Dec 2014 (Local Time) from KPKB Reporting Station
Overcast Overcast  
Wind Chill: 46°   Ceiling: 7500
Heat Index: 46°   Visibility: 10mi
Dew Point: 42°   Wind: 3mph
Humidity: 86%   Direction: 140°SE
Pressure: 29.9"   Gusts: NA
Location:  39.54°N, 81.64°W
Report Text: KPKB 230353Z 14003KT 10SM OVC075 08/06 A2990 RMK AO2 RAB0258E43 SLP128 P0001 T00780056
Loading
Personal Weather Stations






























Interactive Weather Map New forecast layout! Learn more

10-Day Weather Forecast

Advertisements
Track Severe Weather on mobile